Time;durP1;ratioP1;P1;durP2;ratioP2;P2;SDS_P1;SDS_P2;PMS_P1;PMS_P2;Temp;Humidity;BMP_temperature;BMP_pressure;BME280_temperature;BME280_humidity;BME280_pressure;Samples;Min_cycle;Max_cycle;Signal;HPM_P1;HPM_P2
2022/04/10 00:01:36;;;;;;;2.17;1.13;;;8.70;90.20;;;;;;5043000;28;20660;-85
2022/04/10 00:04:07;;;;;;;6.10;1.43;;;8.70;90.40;;;;;;5069758;28;20223;-85
2022/04/10 00:06:34;;;;;;;6.30;1.60;;;8.70;90.50;;;;;;5070943;28;20209;-84
2022/04/10 00:12:41;;;;;;;5.63;1.27;;;8.60;90.60;;;;;;5068701;28;20620;-83
2022/04/10 00:15:11;;;;;;;4.77;1.57;;;8.60;90.70;;;;;;5045643;28;20281;-83
2022/04/10 00:17:53;;;;;;;1.43;1.17;;;8.50;90.80;;;;;;5023434;28;20262;-85
2022/04/10 00:20:21;;;;;;;2.33;1.37;;;8.50;90.80;;;;;;5062434;28;20594;-86
2022/04/10 00:22:49;;;;;;;1.73;1.20;;;8.50;90.90;;;;;;5069689;28;20210;-85
2022/04/10 00:25:18;;;;;;;1.63;1.10;;;8.50;91.00;;;;;;5091780;28;20212;-84
2022/04/10 00:27:47;;;;;;;2.70;1.40;;;8.50;91.10;;;;;;5058019;28;20206;-85
2022/04/10 00:30:17;;;;;;;1.57;1.30;;;8.40;91.10;;;;;;5093761;28;20708;-85
2022/04/10 00:32:59;;;;;;;1.73;1.20;;;8.40;91.10;;;;;;5068760;28;20219;-85
2022/04/10 00:35:34;;;;;;;1.60;1.30;;;8.40;91.00;;;;;;5046727;28;20229;-86
2022/04/10 00:38:01;;;;;;;1.57;1.30;;;8.40;90.90;;;;;;5056596;28;20293;-85
2022/04/10 00:40:29;;;;;;;1.93;1.27;;;8.30;90.30;;;;;;5041762;28;20212;-85
2022/04/10 00:42:56;;;;;;;1.70;1.10;;;8.20;90.20;;;;;;5047916;28;20265;-83
2022/04/10 00:45:24;;;;;;;0.97;0.97;;;8.10;90.30;;;;;;5059636;28;20255;-85
2022/04/10 00:47:54;;;;;;;2.00;1.30;;;8.10;90.60;;;;;;5077884;28;20201;-85
2022/04/10 00:50:22;;;;;;;1.37;1.27;;;8.00;90.70;;;;;;5064501;28;20285;-85
2022/04/10 00:52:50;;;;;;;2.50;1.53;;;8.00;90.60;;;;;;5059309;28;20209;-85
2022/04/10 00:55:18;;;;;;;1.20;1.07;;;7.90;90.50;;;;;;5047868;28;20225;-86
2022/04/10 00:57:47;;;;;;;3.93;1.37;;;7.90;90.50;;;;;;5079067;28;20207;-86
2022/04/10 01:00:15;;;;;;;1.93;1.13;;;7.80;90.50;;;;;;5044187;28;20268;-85
2022/04/10 01:02:42;;;;;;;1.43;1.30;;;7.70;90.60;;;;;;5068846;28;20301;-87
2022/04/10 01:05:11;;;;;;;1.93;1.50;;;7.60;90.70;;;;;;5080648;28;20231;-87
2022/04/10 01:07:39;;;;;;;1.73;1.30;;;7.50;90.90;;;;;;5078684;28;20584;-87
2022/04/10 01:11:00;;;;;;;1.37;1.27;;;7.50;91.10;;;;;;5078596;28;20587;-86
2022/04/10 01:13:53;;;;;;;2.20;1.60;;;7.40;91.20;;;;;;5012282;28;20237;-87
2022/04/10 01:17:06;;;;;;;1.50;1.40;;;7.30;91.40;;;;;;5087287;28;20276;-86
2022/04/10 01:19:46;;;;;;;2.63;1.80;;;7.30;91.60;;;;;;5078965;28;20205;-87
2022/04/10 01:22:37;;;;;;;1.60;1.50;;;7.20;91.80;;;;;;5065680;28;20209;-86
2022/04/10 01:25:09;;;;;;;2.00;1.80;;;7.20;91.90;;;;;;5054988;28;20214;-87
2022/04/10 01:27:41;;;;;;;2.27;1.60;;;7.10;92.00;;;;;;5088072;28;20539;-87
2022/04/10 01:30:11;;;;;;;2.10;1.90;;;7.10;92.10;;;;;;5063990;28;20212;-86
2022/04/10 01:32:41;;;;;;;3.43;1.87;;;7.00;92.20;;;;;;5081142;28;20209;-86
2022/04/10 01:35:10;;;;;;;1.93;1.77;;;7.00;92.20;;;;;;5059278;28;20224;-86
2022/04/10 01:37:39;;;;;;;2.27;1.70;;;7.00;92.30;;;;;;5076936;28;20205;-86
2022/04/10 01:40:11;;;;;;;2.77;2.03;;;7.00;92.30;;;;;;5080621;28;20200;-87
2022/04/10 01:42:40;;;;;;;1.90;1.80;;;6.90;92.30;;;;;;5081036;28;20199;-85
2022/04/10 01:45:08;;;;;;;3.73;1.60;;;6.90;92.40;;;;;;5077791;28;20208;-86
2022/04/10 01:47:37;;;;;;;1.50;1.40;;;6.90;92.40;;;;;;5076056;28;20208;-84
2022/04/10 01:50:05;;;;;;;1.57;1.47;;;6.90;92.50;;;;;;5078132;28;20240;-85
2022/04/10 01:52:32;;;;;;;4.17;2.23;;;6.80;92.50;;;;;;5092702;28;20208;-85
2022/04/10 01:54:59;;;;;;;1.67;1.57;;;6.80;92.50;;;;;;5078920;28;20307;-85
2022/04/10 01:57:27;;;;;;;1.87;1.77;;;6.70;92.50;;;;;;5080270;28;20208;-83
2022/04/10 01:59:55;;;;;;;1.97;1.60;;;6.70;92.50;;;;;;5076906;28;20197;-85
2022/04/10 02:02:24;;;;;;;1.80;1.70;;;6.70;92.50;;;;;;5083977;28;20237;-86
2022/04/10 02:05:05;;;;;;;1.70;1.60;;;6.60;92.50;;;;;;5062331;28;20210;-83
2022/04/10 02:07:32;;;;;;;2.93;1.67;;;6.60;92.50;;;;;;5079634;28;20228;-86
2022/04/10 02:09:59;;;;;;;3.53;1.87;;;6.60;92.50;;;;;;5066946;28;20739;-85
2022/04/10 02:12:32;;;;;;;1.63;1.50;;;6.60;92.50;;;;;;5069181;28;20552;-84
2022/04/10 02:15:00;;;;;;;3.37;1.83;;;6.60;92.50;;;;;;5080927;28;20293;-87
2022/04/10 02:17:27;;;;;;;3.30;1.33;;;6.60;92.50;;;;;;5066533;28;20227;-87
2022/04/10 02:19:55;;;;;;;1.53;1.43;;;6.50;92.50;;;;;;5080192;28;20236;-83
2022/04/10 02:22:22;;;;;;;2.80;1.40;;;6.60;92.40;;;;;;5081754;28;20190;-83
2022/04/10 02:24:50;;;;;;;2.03;1.07;;;6.50;92.40;;;;;;5065184;28;20215;-86
2022/04/10 02:27:17;;;;;;;3.83;1.60;;;6.50;92.40;;;;;;5081795;28;20207;-86
2022/04/10 02:29:44;;;;;;;1.47;1.10;;;6.50;92.40;;;;;;5080376;28;20252;-85
2022/04/10 02:32:12;;;;;;;3.43;1.70;;;6.50;92.50;;;;;;5067300;28;20218;-87
2022/04/10 02:34:41;;;;;;;4.33;1.30;;;6.50;92.50;;;;;;5083961;28;20216;-86
2022/04/10 02:37:08;;;;;;;1.80;1.30;;;6.50;92.40;;;;;;5063187;28;20200;-87
2022/04/10 02:39:36;;;;;;;1.73;1.20;;;6.50;92.50;;;;;;5084836;28;20196;-86
2022/04/10 02:42:04;;;;;;;3.10;1.47;;;6.50;92.50;;;;;;5064010;28;20211;-86
2022/04/10 02:44:31;;;;;;;2.10;1.30;;;6.50;92.50;;;;;;5077997;28;20209;-85
2022/04/10 02:46:58;;;;;;;2.27;1.70;;;6.50;92.50;;;;;;5060763;28;20199;-86
2022/04/10 02:49:25;;;;;;;1.83;1.63;;;6.50;92.50;;;;;;5088136;28;20201;-84
2022/04/10 02:51:53;;;;;;;3.53;1.70;;;6.50;92.40;;;;;;5081372;28;20208;-88
2022/04/10 02:54:22;;;;;;;3.30;2.03;;;6.50;92.40;;;;;;5078199;28;21701;-85
2022/04/10 02:56:49;;;;;;;3.63;1.73;;;6.50;92.40;;;;;;5081129;28;20205;-86
2022/04/10 02:59:17;;;;;;;4.37;1.60;;;6.50;92.40;;;;;;5080516;28;20196;-85
2022/04/10 03:01:44;;;;;;;3.10;1.60;;;6.50;92.40;;;;;;5060595;28;20204;-86
2022/04/10 03:04:12;;;;;;;4.70;2.03;;;6.50;92.40;;;;;;5061027;28;20308;-86
2022/04/10 03:06:39;;;;;;;2.53;1.23;;;6.50;92.40;;;;;;5076944;28;20681;-83
2022/04/10 03:09:07;;;;;;;3.17;1.40;;;6.50;92.40;;;;;;5079807;28;20496;-85
2022/04/10 03:11:36;;;;;;;3.33;1.27;;;6.50;92.40;;;;;;5081961;28;20253;-84
2022/04/10 03:14:04;;;;;;;3.57;2.00;;;6.50;92.40;;;;;;5080868;28;20232;-85
2022/04/10 03:16:31;;;;;;;2.70;1.47;;;6.50;92.40;;;;;;5084813;28;20239;-84
2022/04/10 03:18:59;;;;;;;2.70;1.90;;;6.50;92.30;;;;;;5081406;28;20641;-84
2022/04/10 03:21:27;;;;;;;2.27;1.37;;;6.50;92.20;;;;;;5067339;28;20725;-84
2022/04/10 03:23:55;;;;;;;5.20;1.80;;;6.50;92.10;;;;;;5081006;28;20535;-84
2022/04/10 03:26:23;;;;;;;5.80;2.00;;;6.50;92.10;;;;;;5080797;28;20208;-84
2022/04/10 03:28:51;;;;;;;7.20;2.17;;;6.50;92.00;;;;;;5083378;28;20204;-85
2022/04/10 03:31:20;;;;;;;4.00;1.80;;;6.50;91.90;;;;;;5074829;28;20207;-84
2022/04/10 03:33:47;;;;;;;1.80;1.63;;;6.50;91.80;;;;;;5084022;28;20538;-83
2022/04/10 03:36:15;;;;;;;1.93;1.77;;;6.50;91.80;;;;;;5070761;28;20217;-86
2022/04/10 03:38:43;;;;;;;5.50;2.07;;;6.50;92.00;;;;;;5085683;28;20218;-84
2022/04/10 03:41:11;;;;;;;3.07;1.40;;;6.40;91.60;;;;;;5085494;28;20253;-85
2022/04/10 03:43:39;;;;;;;5.13;2.23;;;6.40;91.60;;;;;;5085670;28;20222;-85
2022/04/10 03:46:06;;;;;;;2.70;1.80;;;6.40;91.50;;;;;;5085023;28;20722;-85
2022/04/10 03:48:34;;;;;;;1.70;1.57;;;6.40;91.50;;;;;;5082460;28;20228;-84
2022/04/10 03:51:01;;;;;;;3.23;1.77;;;6.30;91.50;;;;;;5087030;28;20218;-84
2022/04/10 03:53:28;;;;;;;3.67;1.80;;;6.30;91.50;;;;;;5104322;28;20218;-84
2022/04/10 03:55:56;;;;;;;2.70;1.70;;;6.30;91.50;;;;;;5084113;28;20300;-84
2022/04/10 03:58:30;;;;;;;5.00;2.10;;;6.20;91.50;;;;;;5086694;28;20245;-85
2022/04/10 04:00:57;;;;;;;2.10;1.67;;;6.20;91.50;;;;;;5104418;28;20273;-84
2022/04/10 04:03:26;;;;;;;3.97;2.07;;;6.20;91.60;;;;;;5084649;28;20247;-86
2022/04/10 04:05:55;;;;;;;3.53;1.80;;;6.20;91.60;;;;;;5085866;28;20205;-85
2022/04/10 04:08:23;;;;;;;4.83;1.80;;;6.10;91.60;;;;;;5081839;28;20664;-84
2022/04/10 04:10:52;;;;;;;3.13;2.10;;;6.10;91.60;;;;;;5070941;28;20208;-84
2022/04/10 04:13:21;;;;;;;2.23;1.83;;;6.10;91.60;;;;;;5101724;28;20227;-85
2022/04/10 04:15:48;;;;;;;4.70;2.83;;;6.10;91.60;;;;;;5083201;28;20223;-84
2022/04/10 04:18:16;;;;;;;4.07;2.17;;;6.10;91.50;;;;;;5068801;28;20203;-85
2022/04/10 04:20:43;;;;;;;4.27;2.27;;;6.10;91.50;;;;;;5101675;28;20236;-85
2022/04/10 04:23:11;;;;;;;4.63;2.37;;;6.00;91.40;;;;;;5060924;28;20230;-84
2022/04/10 04:25:38;;;;;;;2.40;2.20;;;6.00;91.40;;;;;;5063708;28;20586;-85
2022/04/10 04:28:08;;;;;;;4.27;2.20;;;6.00;91.40;;;;;;5079482;28;20294;-84
2022/04/10 04:30:35;;;;;;;2.90;2.50;;;6.00;91.40;;;;;;5081688;28;20208;-85
2022/04/10 04:33:04;;;;;;;4.80;2.33;;;5.90;91.40;;;;;;5078617;28;20223;-85
2022/04/10 04:35:32;;;;;;;3.63;2.23;;;5.90;91.50;;;;;;5066622;28;20598;-85
2022/04/10 04:38:01;;;;;;;3.37;2.23;;;5.90;91.60;;;;;;5078301;28;20271;-84
2022/04/10 04:40:29;;;;;;;2.67;2.37;;;5.90;91.70;;;;;;5080045;28;20208;-84
2022/04/10 04:42:57;;;;;;;3.13;2.70;;;5.90;91.80;;;;;;5082014;28;20208;-84
2022/04/10 04:45:27;;;;;;;3.27;2.20;;;5.90;91.80;;;;;;5079339;28;20212;-84
2022/04/10 04:48:04;;;;;;;2.70;2.40;;;5.90;91.80;;;;;;5082837;28;20223;-83
2022/04/10 04:50:33;;;;;;;4.90;2.97;;;5.90;91.90;;;;;;5074437;28;20212;-86
2022/04/10 04:53:02;;;;;;;2.73;2.53;;;5.90;91.90;;;;;;5049544;28;20204;-85
2022/04/10 04:55:31;;;;;;;3.13;2.70;;;5.90;91.90;;;;;;5064458;28;20216;-84
2022/04/10 04:57:59;;;;;;;4.87;2.80;;;6.00;91.90;;;;;;5078512;28;20258;-86
2022/04/10 05:00:28;;;;;;;4.30;3.07;;;6.00;91.90;;;;;;5076425;28;20220;-85
2022/04/10 05:02:59;;;;;;;3.07;2.53;;;6.00;91.90;;;;;;5063347;28;21956;-85
2022/04/10 05:05:27;;;;;;;3.57;3.00;;;6.10;91.80;;;;;;5077804;28;20223;-84
2022/04/10 05:08:00;;;;;;;5.80;3.20;;;6.10;91.80;;;;;;5059038;28;20328;-84
2022/04/10 05:10:28;;;;;;;3.53;2.77;;;6.10;91.80;;;;;;5060165;28;20623;-84
2022/04/10 05:12:56;;;;;;;3.17;2.70;;;6.20;91.80;;;;;;5063051;28;20274;-85
2022/04/10 05:15:26;;;;;;;3.37;3.07;;;6.40;91.80;;;;;;5081659;28;20250;-84
2022/04/10 05:17:54;;;;;;;3.83;3.20;;;6.70;91.30;;;;;;5079194;28;20225;-84
2022/04/10 05:20:22;;;;;;;3.20;2.80;;;7.10;90.80;;;;;;5061319;28;20258;-84
2022/04/10 05:22:58;;;;;;;3.33;2.80;;;7.80;89.60;;;;;;5081624;28;20821;-84
2022/04/10 05:25:27;;;;;;;5.33;2.83;;;8.50;86.20;;;;;;5098380;28;20227;-83
2022/04/10 05:27:56;;;;;;;3.57;2.87;;;8.90;83.60;;;;;;5064259;28;20232;-86
2022/04/10 05:30:25;;;;;;;2.70;2.50;;;9.10;82.20;;;;;;5064683;28;20272;-86
2022/04/10 05:32:53;;;;;;;2.97;2.77;;;9.20;81.50;;;;;;5079000;28;20212;-86
2022/04/10 05:35:20;;;;;;;3.43;2.87;;;9.20;81.20;;;;;;5097315;28;20970;-84
2022/04/10 05:37:47;;;;;;;4.70;3.30;;;9.10;81.10;;;;;;5080711;28;20284;-85
2022/04/10 05:40:16;;;;;;;3.07;2.77;;;8.90;81.60;;;;;;5083183;28;20193;-84
2022/04/10 05:42:45;;;;;;;3.33;2.87;;;8.70;82.60;;;;;;5086749;28;20209;-85
2022/04/10 05:45:14;;;;;;;3.30;2.97;;;8.60;83.50;;;;;;5085663;28;20204;-84
2022/04/10 05:47:47;;;;;;;3.00;2.70;;;8.50;84.20;;;;;;5072339;28;20227;-83
2022/04/10 05:50:18;;;;;;;3.27;2.97;;;8.50;84.90;;;;;;5087704;28;20204;-83
2022/04/10 05:52:47;;;;;;;2.97;2.67;;;8.40;85.20;;;;;;5085071;28;20280;-82
2022/04/10 05:55:20;;;;;;;3.93;2.30;;;8.40;85.50;;;;;;5082855;28;20258;-85
2022/04/10 05:57:48;;;;;;;3.00;2.70;;;8.50;85.80;;;;;;5077760;28;20212;-84
2022/04/10 06:00:24;;;;;;;2.57;2.37;;;8.60;85.80;;;;;;5081901;28;20220;-86
2022/04/10 06:03:04;;;;;;;3.20;2.90;;;8.80;85.40;;;;;;5084293;28;20283;-84
2022/04/10 06:05:33;;;;;;;2.93;2.20;;;8.90;85.20;;;;;;5104721;28;20206;-85
2022/04/10 06:08:09;;;;;;;2.80;2.40;;;9.20;84.40;;;;;;5084269;28;20277;-82
2022/04/10 06:10:47;;;;;;;3.10;2.20;;;9.60;82.90;;;;;;5083641;28;20270;-84
2022/04/10 06:13:15;;;;;;;5.93;2.03;;;10.10;81.00;;;;;;5087208;28;20602;-83
2022/04/10 06:15:51;;;;;;;3.70;2.17;;;10.40;79.50;;;;;;5089418;28;20213;-82
2022/04/10 06:18:20;;;;;;;2.73;2.20;;;10.70;78.50;;;;;;5079494;28;20197;-84
2022/04/10 06:20:48;;;;;;;3.87;2.30;;;10.80;77.70;;;;;;5065478;28;20228;-84
2022/04/10 06:23:15;;;;;;;2.33;2.07;;;10.90;77.60;;;;;;5084028;28;20625;-83
2022/04/10 06:25:46;;;;;;;2.33;2.10;;;10.90;77.50;;;;;;5102952;28;20202;-84
2022/04/10 06:28:15;;;;;;;3.47;2.30;;;10.80;77.50;;;;;;5068639;28;20270;-85
2022/04/10 06:30:46;;;;;;;2.70;2.20;;;10.80;78.10;;;;;;5090337;28;20216;-83
2022/04/10 06:33:19;;;;;;;4.07;2.03;;;10.80;79.00;;;;;;5083666;28;20204;-83
2022/04/10 06:35:49;;;;;;;3.43;2.50;;;10.80;79.20;;;;;;5084721;28;20226;-86
2022/04/10 06:38:16;;;;;;;2.50;2.30;;;10.80;79.60;;;;;;5082769;28;21199;-84
2022/04/10 06:40:51;;;;;;;2.20;2.00;;;10.80;79.70;;;;;;5069431;28;20229;-84
2022/04/10 06:43:22;;;;;;;2.93;1.90;;;10.90;79.60;;;;;;5092506;28;20193;-84
2022/04/10 06:46:26;;;;;;;2.03;1.80;;;10.90;79.60;;;;;;5005994;28;20561;-85
2022/04/10 06:53:41;;;;;;;2.87;1.87;;;11.10;79.60;;;;;;4997700;28;20210;-86
2022/04/10 06:56:09;;;;;;;2.10;1.90;;;11.20;79.60;;;;;;5028163;28;20227;-83
2022/04/10 06:58:38;;;;;;;2.50;1.83;;;11.30;79.30;;;;;;5079159;28;20267;-84
2022/04/10 07:01:06;;;;;;;2.70;1.73;;;11.30;79.00;;;;;;5067531;28;21706;-83
2022/04/10 07:03:34;;;;;;;1.50;1.40;;;11.40;78.90;;;;;;5089147;28;20236;-83
2022/04/10 07:06:04;;;;;;;1.60;1.50;;;11.50;77.90;;;;;;5077867;28;20201;-84
2022/04/10 07:08:37;;;;;;;3.00;1.63;;;11.50;77.20;;;;;;5096019;28;20196;-85
2022/04/10 07:11:05;;;;;;;2.53;1.43;;;11.60;77.40;;;;;;5079044;28;20306;-83
2022/04/10 07:13:35;;;;;;;2.77;1.83;;;11.70;77.70;;;;;;5076493;28;20193;-85
2022/04/10 07:16:05;;;;;;;1.93;1.67;;;11.80;77.90;;;;;;5065466;28;20228;-86
2022/04/10 07:18:32;;;;;;;2.27;1.73;;;11.90;77.20;;;;;;5075374;28;20224;-86
2022/04/10 07:21:06;;;;;;;5.80;2.07;;;11.90;73.50;;;;;;5094342;28;20697;-85
2022/04/10 07:23:42;;;;;;;3.90;1.00;;;11.80;72.70;;;;;;5079539;28;21375;-85
2022/04/10 07:26:21;;;;;;;3.73;1.50;;;11.80;70.90;;;;;;5093196;28;20285;-85
2022/04/10 07:28:55;;;;;;;1.43;1.30;;;11.70;73.30;;;;;;5077627;28;20206;-84
2022/04/10 07:31:25;;;;;;;1.83;1.50;;;11.70;73.30;;;;;;5081868;28;20250;-84
2022/04/10 07:33:55;;;;;;;3.60;1.57;;;11.60;71.10;;;;;;5097576;28;20208;-83
2022/04/10 07:36:41;;;;;;;4.00;1.90;;;11.50;71.10;;;;;;5081448;28;20227;-84
2022/04/10 07:39:10;;;;;;;1.30;1.20;;;11.40;74.40;;;;;;5080207;28;20211;-83
2022/04/10 07:41:42;;;;;;;2.70;2.07;;;11.30;74.20;;;;;;5084056;28;20205;-81
2022/04/10 07:44:19;;;;;;;1.37;1.17;;;11.20;72.90;;;;;;5047460;28;20207;-83
2022/04/10 07:49:34;;;;;;;1.63;1.17;;;11.10;75.40;;;;;;5098722;28;20212;-82
2022/04/10 07:52:07;;;;;;;2.40;1.53;;;11.20;75.30;;;;;;5098916;28;20580;-81
2022/04/10 07:54:52;;;;;;;2.47;1.13;;;11.30;76.60;;;;;;5098154;28;20216;-84
2022/04/10 07:57:20;;;;;;;1.70;1.57;;;11.50;76.40;;;;;;5098661;28;22176;-84
2022/04/10 07:59:50;;;;;;;1.53;1.43;;;11.80;76.10;;;;;;5064581;28;20195;-83
2022/04/10 08:03:11;;;;;;;2.00;1.40;;;12.10;73.70;;;;;;5098956;28;20314;-85
2022/04/10 08:06:18;;;;;;;2.10;1.70;;;12.30;71.40;;;;;;5100439;28;20215;-85
2022/04/10 08:08:51;;;;;;;1.80;1.70;;;12.30;72.10;;;;;;5097721;28;20192;-87
2022/04/10 08:11:18;;;;;;;2.37;1.60;;;12.40;73.60;;;;;;5066621;28;20238;-83
2022/04/10 08:13:46;;;;;;;1.77;1.63;;;12.60;72.90;;;;;;5100236;28;20198;-85
2022/04/10 08:16:15;;;;;;;1.70;1.37;;;12.70;69.00;;;;;;5098179;28;20228;-85
2022/04/10 08:18:42;;;;;;;4.33;1.60;;;12.80;71.00;;;;;;5082107;28;20215;-87
2022/04/10 08:21:09;;;;;;;2.47;1.70;;;12.80;67.10;;;;;;5079947;28;20202;-84
2022/04/10 08:23:37;;;;;;;1.80;1.70;;;12.80;66.60;;;;;;5082715;28;20679;-83
2022/04/10 08:26:04;;;;;;;1.80;1.70;;;12.70;67.20;;;;;;5102362;28;20653;-85
2022/04/10 08:28:32;;;;;;;3.07;1.90;;;12.50;68.10;;;;;;5101891;28;20231;-85
2022/04/10 08:30:59;;;;;;;2.83;1.90;;;12.40;70.00;;;;;;5086225;28;20205;-84
2022/04/10 08:33:26;;;;;;;2.17;1.97;;;12.40;71.00;;;;;;5102367;28;20225;-83
2022/04/10 08:35:54;;;;;;;2.50;2.23;;;12.50;69.90;;;;;;5094419;28;20227;-84
2022/04/10 08:38:22;;;;;;;2.53;1.70;;;12.50;71.70;;;;;;5081197;28;20234;-87
2022/04/10 08:41:00;;;;;;;2.77;1.90;;;12.80;71.60;;;;;;5086902;28;20204;-84
2022/04/10 08:43:29;;;;;;;3.23;2.27;;;12.90;68.70;;;;;;5096713;28;20196;-85
2022/04/10 08:45:59;;;;;;;2.90;2.00;;;13.10;70.30;;;;;;5081386;28;20262;-87
2022/04/10 08:48:26;;;;;;;2.17;1.97;;;13.50;70.10;;;;;;5066818;28;20206;-85
2022/04/10 08:50:55;;;;;;;3.20;1.77;;;13.80;69.90;;;;;;5100864;28;20282;-84
2022/04/10 08:53:26;;;;;;;2.80;1.80;;;14.10;63.60;;;;;;5086026;28;20207;-86
2022/04/10 08:55:54;;;;;;;2.10;1.93;;;14.20;64.10;;;;;;5086657;28;20227;-86
2022/04/10 08:58:23;;;;;;;2.93;2.30;;;14.20;63.70;;;;;;5099757;28;20271;-87
2022/04/10 09:00:55;;;;;;;3.97;2.43;;;14.10;65.50;;;;;;5083474;28;20200;-87
2022/04/10 09:03:23;;;;;;;3.00;2.40;;;14.30;66.00;;;;;;5096013;28;20243;-85
2022/04/10 09:06:04;;;;;;;1.90;1.80;;;14.40;66.20;;;;;;5097202;28;20204;-83
2022/04/10 09:08:33;;;;;;;2.57;2.37;;;14.50;65.40;;;;;;5080140;28;20208;-85
2022/04/10 09:11:05;;;;;;;3.23;2.93;;;14.50;64.90;;;;;;5077512;28;20200;-84
2022/04/10 09:13:36;;;;;;;2.40;2.20;;;14.50;63.80;;;;;;5097171;28;20195;-85
2022/04/10 09:16:11;;;;;;;5.47;2.60;;;14.50;65.00;;;;;;5097481;28;20229;-83
2022/04/10 09:19:01;;;;;;;3.43;2.70;;;14.70;63.10;;;;;;5100070;28;20215;-85
2022/04/10 09:21:33;;;;;;;6.23;2.60;;;14.70;64.30;;;;;;5098698;28;20193;-83
2022/04/10 09:24:10;;;;;;;3.30;1.97;;;14.90;63.90;;;;;;5080489;28;20199;-84
2022/04/10 09:26:56;;;;;;;2.33;2.03;;;15.20;62.90;;;;;;5080873;28;20211;-83
2022/04/10 09:29:26;;;;;;;2.30;2.10;;;15.50;61.90;;;;;;5100886;28;21730;-86
2022/04/10 09:31:57;;;;;;;2.13;2.00;;;15.80;60.30;;;;;;5065698;28;20217;-83
2022/04/10 09:34:28;;;;;;;2.60;2.40;;;16.00;61.10;;;;;;5083750;28;20542;-86
2022/04/10 09:37:16;;;;;;;3.27;2.63;;;16.20;59.50;;;;;;5069761;28;21122;-85
2022/04/10 09:39:50;;;;;;;2.43;2.23;;;16.40;58.70;;;;;;5085203;28;20203;-85
2022/04/10 09:42:29;;;;;;;3.03;2.70;;;16.60;58.30;;;;;;5099789;28;20186;-84
2022/04/10 09:45:29;;;;;;;4.10;2.50;;;16.70;58.70;;;;;;5085834;28;20200;-83
2022/04/10 09:47:57;;;;;;;4.87;2.73;;;17.00;59.10;;;;;;5082329;28;20194;-85
2022/04/10 09:50:32;;;;;;;3.00;2.80;;;17.10;56.90;;;;;;5080917;28;20280;-83
2022/04/10 09:53:07;;;;;;;3.80;2.20;;;17.20;56.60;;;;;;5089122;28;20296;-82
2022/04/10 09:55:37;;;;;;;2.63;2.07;;;17.30;54.30;;;;;;5092231;28;20275;-84
2022/04/10 09:58:10;;;;;;;3.63;2.23;;;17.30;51.70;;;;;;5068822;28;20221;-83
2022/04/10 10:00:43;;;;;;;2.80;2.53;;;17.40;52.10;;;;;;5084681;28;20205;-85
2022/04/10 10:03:11;;;;;;;2.80;2.47;;;17.30;50.90;;;;;;5097307;28;20225;-84
2022/04/10 10:05:39;;;;;;;3.57;2.50;;;17.20;53.40;;;;;;5082078;28;20209;-85
2022/04/10 10:08:07;;;;;;;4.50;2.20;;;17.20;53.80;;;;;;5084262;28;20283;-84
2022/04/10 10:10:36;;;;;;;4.60;2.20;;;17.30;52.90;;;;;;5069716;28;20209;-83
2022/04/10 10:13:05;;;;;;;2.73;1.63;;;17.40;50.30;;;;;;5085156;28;20231;-83
2022/04/10 10:15:38;;;;;;;2.90;1.60;;;17.50;49.60;;;;;;5081856;28;20232;-84
2022/04/10 10:18:08;;;;;;;1.10;1.10;;;17.60;46.50;;;;;;5097034;28;20221;-83
2022/04/10 10:20:40;;;;;;;2.00;1.40;;;17.60;44.40;;;;;;5084861;28;20215;-83
2022/04/10 10:23:10;;;;;;;2.10;1.83;;;17.50;41.80;;;;;;5069078;28;20198;-84
2022/04/10 10:26:01;;;;;;;2.37;1.90;;;17.30;46.90;;;;;;5070476;28;20223;-83
2022/04/10 10:28:56;;;;;;;2.73;2.00;;;17.20;48.70;;;;;;5082620;28;20282;-84
2022/04/10 10:32:00;;;;;;;2.10;2.00;;;17.30;47.60;;;;;;5082837;28;20232;-83
2022/04/10 10:34:28;;;;;;;2.50;2.27;;;17.40;48.70;;;;;;5100300;28;20197;-84
2022/04/10 10:37:00;;;;;;;2.20;1.70;;;17.60;49.80;;;;;;5084361;28;20205;-85
2022/04/10 10:39:30;;;;;;;3.57;2.40;;;17.80;50.30;;;;;;5065313;28;20218;-84
2022/04/10 10:42:11;;;;;;;2.23;1.83;;;18.00;45.80;;;;;;5099761;28;20197;-84
2022/04/10 10:44:41;;;;;;;2.73;1.60;;;18.00;45.70;;;;;;5085178;28;20276;-82
2022/04/10 10:47:26;;;;;;;2.07;1.87;;;18.00;46.40;;;;;;5083709;28;20698;-87
2022/04/10 10:49:54;;;;;;;3.13;1.70;;;18.10;45.80;;;;;;5103277;28;20199;-85
2022/04/10 10:52:23;;;;;;;1.70;1.53;;;18.20;46.60;;;;;;5103172;28;20254;-85
2022/04/10 10:54:52;;;;;;;2.53;2.33;;;18.40;45.90;;;;;;5103238;28;20222;-85
2022/04/10 10:57:32;;;;;;;2.27;1.83;;;18.60;44.00;;;;;;5085260;28;20233;-84
2022/04/10 11:00:14;;;;;;;2.83;2.13;;;18.50;46.40;;;;;;5056020;28;20205;-84
2022/04/10 11:02:49;;;;;;;6.77;6.13;;;18.50;46.80;;;;;;5084071;28;20272;-84
2022/04/10 11:05:26;;;;;;;5.10;2.73;;;18.60;46.30;;;;;;5102584;28;20212;-85
2022/04/10 11:08:05;;;;;;;5.23;2.80;;;18.80;45.70;;;;;;5084683;28;20216;-83
2022/04/10 11:10:38;;;;;;;7.47;3.47;;;18.90;44.20;;;;;;5069602;28;20211;-86
2022/04/10 11:13:08;;;;;;;9.73;3.27;;;19.00;43.60;;;;;;5088136;28;20212;-85
2022/04/10 11:15:47;;;;;;;6.73;2.73;;;19.10;43.10;;;;;;5088399;28;20217;-85
2022/04/10 11:18:25;;;;;;;2.30;1.30;;;19.20;43.00;;;;;;5080260;28;20688;-84
2022/04/10 11:20:57;;;;;;;2.33;2.00;;;19.30;41.70;;;;;;5094313;28;20648;-83
2022/04/10 11:23:36;;;;;;;2.57;1.67;;;19.50;42.50;;;;;;5097999;28;20197;-84
2022/04/10 11:26:06;;;;;;;1.50;1.40;;;19.60;43.20;;;;;;5080167;28;20208;-83
2022/04/10 11:29:07;;;;;;;1.73;1.53;;;19.60;42.10;;;;;;5077707;28;20200;-81
2022/04/10 11:31:35;;;;;;;1.60;1.50;;;19.60;38.20;;;;;;5052203;28;20602;-84
2022/04/10 11:34:40;;;;;;;1.30;1.20;;;19.50;38.80;;;;;;5076356;28;20222;-83
2022/04/10 11:37:21;;;;;;;1.10;1.00;;;19.30;39.40;;;;;;5053475;28;20272;-82
2022/04/10 11:39:55;;;;;;;1.30;1.20;;;19.20;36.30;;;;;;5069412;28;20200;-81
2022/04/10 11:42:27;;;;;;;1.13;1.10;;;18.90;35.60;;;;;;5095670;28;20256;-82
2022/04/10 11:44:54;;;;;;;1.50;1.40;;;18.60;35.00;;;;;;5079272;28;20198;-82
2022/04/10 11:47:22;;;;;;;1.83;1.50;;;18.40;35.70;;;;;;5081913;28;20201;-84
2022/04/10 11:49:53;;;;;;;1.40;1.30;;;18.20;39.10;;;;;;5080325;28;20248;-83
2022/04/10 11:52:21;;;;;;;2.27;1.60;;;18.30;40.60;;;;;;5093659;28;20282;-82
2022/04/10 11:54:50;;;;;;;1.50;1.40;;;18.50;41.50;;;;;;5080918;28;20212;-83
2022/04/10 11:57:18;;;;;;;4.03;1.90;;;18.70;40.90;;;;;;5097113;28;20637;-82
2022/04/10 11:59:45;;;;;;;2.87;1.20;;;18.80;37.00;;;;;;5074044;28;20252;-82
2022/04/10 12:02:14;;;;;;;2.33;1.40;;;18.70;35.50;;;;;;5093541;28;20225;-82
2022/04/10 12:04:43;;;;;;;1.63;1.43;;;18.60;37.50;;;;;;5093982;28;20207;-81
2022/04/10 12:07:20;;;;;;;2.33;1.27;;;18.60;35.50;;;;;;5094582;28;20195;-83
2022/04/10 12:09:51;;;;;;;1.30;1.20;;;18.60;35.20;;;;;;5093674;28;20591;-82
2022/04/10 12:12:22;;;;;;;1.43;0.80;;;18.60;35.30;;;;;;5095662;28;20198;-84
2022/04/10 12:14:50;;;;;;;1.37;0.80;;;18.70;35.70;;;;;;5071099;28;20208;-84
2022/04/10 12:17:21;;;;;;;1.80;1.10;;;18.90;35.80;;;;;;5093950;28;20227;-82
2022/04/10 12:19:54;;;;;;;4.57;1.93;;;19.10;33.60;;;;;;5094089;28;20206;-82
2022/04/10 12:22:25;;;;;;;1.50;1.40;;;19.10;33.00;;;;;;5080546;28;20204;-84
2022/04/10 12:25:00;;;;;;;2.30;1.57;;;19.00;33.60;;;;;;5094466;28;20220;-83
2022/04/10 12:27:28;;;;;;;3.30;1.30;;;19.00;35.30;;;;;;5089741;28;20212;-81
2022/04/10 12:29:56;;;;;;;3.07;1.20;;;19.10;33.10;;;;;;5076320;28;20269;-82
2022/04/10 12:32:25;;;;;;;1.33;0.90;;;19.10;30.00;;;;;;5091837;28;20214;-84
2022/04/10 12:34:53;;;;;;;1.00;0.90;;;19.00;30.80;;;;;;5061568;28;20204;-82
2022/04/10 12:37:20;;;;;;;0.70;0.70;;;18.90;32.90;;;;;;5086729;28;20232;-85
2022/04/10 12:39:48;;;;;;;1.23;1.13;;;19.00;32.90;;;;;;5080334;28;20294;-84
2022/04/10 12:42:22;;;;;;;1.60;1.37;;;19.00;33.80;;;;;;5095534;28;20215;-83
2022/04/10 12:44:59;;;;;;;1.30;1.20;;;19.10;35.50;;;;;;5085840;28;20203;-82
2022/04/10 12:47:45;;;;;;;1.20;1.10;;;19.30;36.00;;;;;;5092728;28;21226;-84
2022/04/10 12:50:19;;;;;;;1.20;1.10;;;19.50;34.00;;;;;;5079094;28;20206;-83
2022/04/10 12:52:47;;;;;;;1.20;1.10;;;19.60;34.20;;;;;;5085764;28;20199;-84
2022/04/10 12:55:30;;;;;;;2.17;1.17;;;19.70;34.30;;;;;;5077148;28;20228;-85
2022/04/10 12:58:06;;;;;;;0.70;0.70;;;19.80;33.90;;;;;;5068524;28;20352;-83
2022/04/10 13:00:35;;;;;;;0.80;0.80;;;19.90;33.00;;;;;;5087206;28;20231;-83
2022/04/10 13:03:30;;;;;;;1.10;1.00;;;19.90;33.00;;;;;;5071570;28;20259;-83
2022/04/10 13:06:03;;;;;;;0.97;0.80;;;20.00;32.30;;;;;;5051870;28;20207;-82
2022/04/10 13:08:38;;;;;;;0.60;0.60;;;20.00;30.40;;;;;;5060421;28;20219;-83
2022/04/10 13:11:07;;;;;;;1.17;1.07;;;20.00;30.00;;;;;;5078152;28;20198;-83
2022/04/10 13:13:57;;;;;;;0.73;0.73;;;20.00;29.70;;;;;;5076214;28;20223;-84
2022/04/10 13:16:36;;;;;;;0.90;0.90;;;20.00;29.90;;;;;;5072983;28;20200;-84
2022/04/10 13:19:06;;;;;;;0.67;0.47;;;20.00;29.60;;;;;;5057939;28;20204;-83
2022/04/10 13:21:37;;;;;;;0.70;0.70;;;20.00;28.50;;;;;;5058327;28;20299;-84
2022/04/10 13:24:07;;;;;;;0.70;0.70;;;20.00;29.10;;;;;;5075766;28;20203;-82
2022/04/10 13:26:37;;;;;;;0.83;0.83;;;20.00;29.20;;;;;;5072165;28;20216;-83